Time;durP1;ratioP1;P1;durP2;ratioP2;P2;SDS_P1;SDS_P2;PMS_P1;PMS_P2;Temp;Humidity;BMP_temperature;BMP_pressure;BME280_temperature;BME280_humidity;BME280_pressure;Samples;Min_cycle;Max_cycle;Signal;HPM_P1;HPM_P2
2022/06/18 00:00:37;;;;;;;11.32;4.90;;;24.40;53.20;;;;;;5016434;28;20492;-73
2022/06/18 00:03:03;;;;;;;8.88;4.88;;;24.40;53.40;;;;;;5004341;28;20053;-73
2022/06/18 00:05:31;;;;;;;9.88;4.68;;;24.40;53.20;;;;;;5019347;28;20049;-74
2022/06/18 00:07:57;;;;;;;12.60;4.72;;;24.30;53.40;;;;;;5022285;28;20511;-74
2022/06/18 00:10:26;;;;;;;8.63;4.43;;;24.40;53.60;;;;;;5002390;28;20041;-74
2022/06/18 00:15:38;;;;;;;;;;;24.20;53.70;;;;;;5022219;28;20520;-73
2022/06/18 00:18:10;;;;;;;9.18;4.40;;;24.20;54.00;;;;;;5025612;28;19917;-75
2022/06/18 00:20:37;;;;;;;10.80;4.63;;;24.20;53.80;;;;;;5020756;28;20037;-74
2022/06/18 00:23:05;;;;;;;9.45;4.28;;;24.10;53.90;;;;;;5002658;28;20042;-73
2022/06/18 00:25:38;;;;;;;9.02;4.30;;;24.10;53.90;;;;;;5013582;28;20042;-75
2022/06/18 00:28:11;;;;;;;9.73;4.17;;;24.00;54.10;;;;;;5007600;28;20127;-74
2022/06/18 00:30:36;;;;;;;9.30;4.13;;;24.00;54.10;;;;;;5023213;28;20048;-74
2022/06/18 00:33:02;;;;;;;14.05;4.80;;;24.00;54.20;;;;;;5021194;28;20033;-74
2022/06/18 00:35:28;;;;;;;9.05;4.28;;;24.00;54.40;;;;;;5017110;28;20041;-74
2022/06/18 00:37:59;;;;;;;8.63;4.40;;;24.00;54.40;;;;;;5024602;28;20437;-73
2022/06/18 00:40:27;;;;;;;8.85;4.70;;;24.00;54.40;;;;;;5021765;28;20512;-74
2022/06/18 00:42:56;;;;;;;8.70;4.00;;;23.90;54.60;;;;;;5027435;28;20051;-74
2022/06/18 00:45:26;;;;;;;9.13;4.60;;;23.80;54.70;;;;;;5002872;28;20049;-74
2022/06/18 00:48:04;;;;;;;10.48;4.35;;;23.70;54.80;;;;;;5021134;28;20557;-74
2022/06/18 00:50:45;;;;;;;8.07;4.30;;;23.70;54.70;;;;;;5021009;28;20044;-73
2022/06/18 00:53:20;;;;;;;8.88;4.63;;;23.70;54.50;;;;;;5022648;28;20489;-73
2022/06/18 00:56:10;;;;;;;6.57;3.83;;;23.70;54.40;;;;;;5018549;28;20045;-73
2022/06/18 00:58:47;;;;;;;8.40;4.38;;;23.60;54.60;;;;;;5003635;28;20034;-73
2022/06/18 01:01:22;;;;;;;8.10;4.78;;;23.60;54.80;;;;;;5002255;28;20034;-73
2022/06/18 01:03:49;;;;;;;9.35;4.40;;;23.60;54.70;;;;;;5024469;28;20472;-74
2022/06/18 01:06:28;;;;;;;8.77;4.30;;;23.50;54.80;;;;;;5002085;28;20033;-73
2022/06/18 01:09:12;;;;;;;11.38;4.68;;;23.50;54.80;;;;;;5003537;28;20044;-73
2022/06/18 01:11:39;;;;;;;;;;;23.50;54.90;;;;;;5019503;28;20053;-72
2022/06/18 01:14:09;;;;;;;9.25;4.60;;;23.50;54.90;;;;;;5019926;28;19924;-73
2022/06/18 01:16:35;;;;;;;8.70;4.68;;;23.40;55.30;;;;;;5020540;28;20068;-73
2022/06/18 01:19:03;;;;;;;7.82;4.20;;;23.40;55.50;;;;;;5019750;28;20152;-73
2022/06/18 01:21:47;;;;;;;8.38;4.13;;;23.30;55.60;;;;;;5022447;28;20033;-72
2022/06/18 01:24:21;;;;;;;8.57;4.85;;;23.30;55.80;;;;;;5013925;28;20057;-73
2022/06/18 01:26:50;;;;;;;8.75;5.32;;;23.30;55.70;;;;;;5015435;28;20060;-73
2022/06/18 01:29:16;;;;;;;12.60;4.80;;;23.20;55.80;;;;;;5017794;28;20045;-72
2022/06/18 01:31:43;;;;;;;10.60;4.47;;;23.10;56.00;;;;;;5018826;28;20037;-72
2022/06/18 01:34:09;;;;;;;9.05;5.18;;;23.10;56.40;;;;;;5020440;28;20574;-72
2022/06/18 01:36:37;;;;;;;8.88;4.90;;;23.10;56.20;;;;;;5019860;28;20038;-72
2022/06/18 01:39:12;;;;;;;9.52;5.05;;;23.10;56.30;;;;;;5022944;28;20241;-73
2022/06/18 01:41:51;;;;;;;8.43;4.72;;;23.00;56.50;;;;;;5001298;28;20049;-72
2022/06/18 01:44:41;;;;;;;10.98;5.40;;;23.00;56.60;;;;;;5012320;28;20430;-73
2022/06/18 01:47:21;;;;;;;9.80;4.97;;;22.90;56.70;;;;;;5018661;28;20038;-73
2022/06/18 01:49:59;;;;;;;10.23;5.07;;;22.90;56.90;;;;;;5002439;28;20129;-72
2022/06/18 01:52:33;;;;;;;8.13;4.78;;;22.90;57.00;;;;;;5021225;28;20045;-73
2022/06/18 01:55:06;;;;;;;8.75;5.25;;;22.80;57.10;;;;;;5020400;28;20041;-73
2022/06/18 01:57:38;;;;;;;9.55;5.45;;;22.80;57.20;;;;;;5015118;28;20041;-74
2022/06/18 02:00:13;;;;;;;9.43;4.57;;;22.70;57.50;;;;;;5020898;28;20042;-74
2022/06/18 02:02:41;;;;;;;11.48;4.80;;;22.70;57.80;;;;;;5022432;28;20041;-74
2022/06/18 02:05:09;;;;;;;8.05;4.72;;;22.60;57.80;;;;;;5021144;28;20052;-74
2022/06/18 02:07:35;;;;;;;8.45;4.53;;;22.60;57.80;;;;;;5006181;28;20116;-73
2022/06/18 02:10:29;;;;;;;11.95;6.15;;;22.60;57.80;;;;;;5016697;28;20069;-73
2022/06/18 02:12:58;;;;;;;11.60;5.72;;;22.60;58.00;;;;;;5021481;28;20041;-74
2022/06/18 02:15:29;;;;;;;10.60;5.20;;;22.60;57.70;;;;;;5020525;28;20041;-73
2022/06/18 02:17:58;;;;;;;9.02;5.18;;;22.60;58.10;;;;;;5021879;28;20628;-73
2022/06/18 02:20:27;;;;;;;12.43;5.68;;;22.60;57.90;;;;;;5018381;28;20588;-73
2022/06/18 02:22:55;;;;;;;10.05;5.10;;;22.60;57.80;;;;;;5019175;28;20083;-73
2022/06/18 02:25:25;;;;;;;9.00;4.70;;;22.50;57.90;;;;;;5017377;28;20566;-72
2022/06/18 02:27:56;;;;;;;10.80;4.90;;;22.50;58.30;;;;;;5024426;28;20105;-73
2022/06/18 02:30:25;;;;;;;9.00;5.20;;;22.50;58.40;;;;;;5020576;28;20069;-74
2022/06/18 02:33:17;;;;;;;8.80;4.80;;;22.50;58.80;;;;;;5021441;28;20083;-72
2022/06/18 02:35:43;;;;;;;9.18;4.72;;;22.40;59.00;;;;;;5024159;28;20038;-72
2022/06/18 02:38:18;;;;;;;8.48;4.57;;;22.40;59.00;;;;;;4997447;28;20448;-72
2022/06/18 02:40:44;;;;;;;7.95;5.00;;;22.40;58.90;;;;;;5001717;28;20040;-72
2022/06/18 02:43:12;;;;;;;9.20;5.03;;;22.30;59.50;;;;;;5018518;28;20029;-72
2022/06/18 02:45:39;;;;;;;8.90;5.05;;;22.30;59.80;;;;;;5012496;28;20049;-72
2022/06/18 02:48:07;;;;;;;11.02;5.20;;;22.30;59.80;;;;;;5021965;28;20044;-72
2022/06/18 02:50:35;;;;;;;10.57;5.45;;;22.20;60.00;;;;;;5018286;28;20385;-72
2022/06/18 02:53:04;;;;;;;10.65;5.50;;;22.20;59.70;;;;;;5014774;28;20075;-73
2022/06/18 02:55:34;;;;;;;9.85;4.68;;;22.10;60.10;;;;;;5017379;28;20113;-73
2022/06/18 02:58:19;;;;;;;12.48;5.80;;;22.10;60.00;;;;;;5021811;28;20048;-73
2022/06/18 03:00:53;;;;;;;9.10;5.30;;;22.10;60.20;;;;;;5001010;28;20034;-75
2022/06/18 03:03:20;;;;;;;10.20;5.53;;;22.00;60.30;;;;;;5002400;28;20063;-72
2022/06/18 03:05:46;;;;;;;9.90;5.45;;;22.00;60.40;;;;;;5019471;28;20042;-73
2022/06/18 03:08:11;;;;;;;10.30;5.63;;;22.00;60.70;;;;;;5024667;28;20164;-72
2022/06/18 03:13:22;;;;;;;10.38;5.68;;;21.90;60.80;;;;;;5013398;28;20045;-72
2022/06/18 03:15:50;;;;;;;8.65;5.00;;;21.90;61.10;;;;;;5021727;28;20041;-74
2022/06/18 03:18:18;;;;;;;8.77;5.35;;;21.80;61.50;;;;;;4997548;28;20527;-73
2022/06/18 03:21:04;;;;;;;13.13;6.07;;;21.90;61.40;;;;;;5017621;28;20061;-73
2022/06/18 03:23:31;;;;;;;11.30;5.30;;;21.80;61.50;;;;;;5017789;28;20460;-73
2022/06/18 03:25:57;;;;;;;9.02;5.18;;;21.80;61.80;;;;;;5020959;28;20441;-73
2022/06/18 03:28:25;;;;;;;10.82;5.75;;;21.80;61.90;;;;;;5020117;28;20033;-73
2022/06/18 03:30:51;;;;;;;9.27;5.45;;;21.80;61.60;;;;;;5000416;28;20458;-74
2022/06/18 03:33:17;;;;;;;12.02;5.60;;;21.70;61.80;;;;;;5011029;28;20472;-73
2022/06/18 03:35:46;;;;;;;9.13;5.60;;;21.70;61.60;;;;;;5021139;28;20063;-73
2022/06/18 03:38:13;;;;;;;12.48;6.28;;;21.70;61.70;;;;;;5022370;28;20045;-73
2022/06/18 03:40:39;;;;;;;10.38;6.00;;;21.70;61.80;;;;;;5005833;28;20060;-73
2022/06/18 03:43:05;;;;;;;12.30;6.32;;;21.70;62.10;;;;;;5022218;28;20537;-73
2022/06/18 03:45:39;;;;;;;10.27;5.07;;;21.60;61.90;;;;;;5021100;28;20135;-73
2022/06/18 03:48:06;;;;;;;10.07;5.43;;;21.70;61.90;;;;;;5022260;28;20045;-74
2022/06/18 03:50:32;;;;;;;13.65;6.97;;;21.70;62.00;;;;;;5022670;28;20036;-73
2022/06/18 03:52:57;;;;;;;10.98;6.80;;;21.60;62.30;;;;;;5028162;28;20037;-74
2022/06/18 03:55:24;;;;;;;13.02;7.25;;;21.60;62.10;;;;;;5019269;28;20132;-75
2022/06/18 03:57:50;;;;;;;11.57;7.00;;;21.60;61.90;;;;;;5022660;28;20049;-73
2022/06/18 04:00:19;;;;;;;13.60;7.07;;;21.70;62.00;;;;;;5018800;28;20037;-74
2022/06/18 04:02:45;;;;;;;15.57;7.47;;;21.70;61.90;;;;;;5007736;28;20445;-75
2022/06/18 04:05:11;;;;;;;13.48;6.70;;;21.80;61.90;;;;;;5021528;28;20396;-73
2022/06/18 04:07:38;;;;;;;13.15;6.68;;;21.80;62.10;;;;;;5003202;28;20392;-74
2022/06/18 04:10:06;;;;;;;11.90;6.63;;;21.80;62.50;;;;;;5024009;28;20042;-74
2022/06/18 04:12:32;;;;;;;9.10;6.15;;;21.80;62.50;;;;;;5022178;28;20561;-73
2022/06/18 04:14:58;;;;;;;9.68;6.30;;;21.90;62.60;;;;;;5019389;28;20126;-73
2022/06/18 04:17:24;;;;;;;14.40;7.90;;;21.90;62.60;;;;;;5018472;28;20417;-73
2022/06/18 04:19:50;;;;;;;11.30;7.20;;;21.90;62.50;;;;;;5020284;28;20064;-73
2022/06/18 04:22:16;;;;;;;11.93;7.22;;;21.90;62.70;;;;;;5021153;28;20602;-74
2022/06/18 04:24:42;;;;;;;11.63;7.85;;;22.00;62.80;;;;;;5023569;28;20121;-74
2022/06/18 04:27:07;;;;;;;13.48;8.10;;;22.00;62.50;;;;;;5015763;28;20396;-74
2022/06/18 04:29:33;;;;;;;14.00;8.35;;;22.10;62.60;;;;;;5021108;28;20038;-72
2022/06/18 04:31:59;;;;;;;13.23;8.25;;;22.20;62.40;;;;;;5022792;28;20038;-74
2022/06/18 04:34:26;;;;;;;14.68;8.27;;;22.10;61.70;;;;;;5004402;28;20420;-73
2022/06/18 04:36:52;;;;;;;11.52;7.82;;;22.20;62.20;;;;;;5020571;28;20052;-73
2022/06/18 04:39:18;;;;;;;10.73;6.70;;;22.10;62.50;;;;;;5019414;28;20041;-74
2022/06/18 04:41:44;;;;;;;9.77;6.65;;;22.40;62.30;;;;;;5034913;28;20172;-75
2022/06/18 04:44:10;;;;;;;12.95;7.63;;;22.50;62.00;;;;;;5019248;28;20069;-72
2022/06/18 04:46:35;;;;;;;13.65;7.78;;;22.60;61.60;;;;;;5022714;28;20422;-73
2022/06/18 04:49:01;;;;;;;12.30;7.65;;;22.70;61.40;;;;;;5017319;28;20043;-73
2022/06/18 04:51:27;;;;;;;9.70;7.75;;;22.80;61.50;;;;;;5020105;28;20499;-73
2022/06/18 04:53:53;;;;;;;10.93;7.45;;;22.80;61.10;;;;;;5022984;28;20097;-73
2022/06/18 04:56:19;;;;;;;13.90;7.05;;;22.90;61.30;;;;;;5018894;28;20117;-73
2022/06/18 04:58:44;;;;;;;13.48;7.85;;;23.00;60.70;;;;;;5003839;28;20025;-73
2022/06/18 05:01:18;;;;;;;11.40;7.30;;;23.10;60.00;;;;;;5003533;28;20026;-72
2022/06/18 05:03:44;;;;;;;10.68;6.65;;;23.20;60.00;;;;;;5020088;28;20467;-73
2022/06/18 05:06:10;;;;;;;11.45;6.53;;;23.40;59.90;;;;;;5019525;28;20038;-72
2022/06/18 05:08:36;;;;;;;14.43;7.60;;;23.70;59.50;;;;;;5024620;28;20125;-73
2022/06/18 05:11:02;;;;;;;12.10;7.78;;;23.90;58.90;;;;;;5019077;28;20120;-73
2022/06/18 05:13:29;;;;;;;15.45;7.45;;;24.20;57.40;;;;;;5005877;28;20037;-73
2022/06/18 05:15:55;;;;;;;13.93;7.53;;;24.50;56.60;;;;;;5025868;28;20472;-72
2022/06/18 05:18:23;;;;;;;15.77;8.07;;;24.70;55.50;;;;;;5019384;28;20038;-73
2022/06/18 05:20:52;;;;;;;11.70;7.15;;;25.00;55.20;;;;;;5020935;28;20088;-73
2022/06/18 05:23:19;;;;;;;14.45;8.43;;;25.10;54.70;;;;;;5004962;28;20415;-74
2022/06/18 05:25:45;;;;;;;17.33;8.15;;;25.10;54.90;;;;;;5021110;28;20037;-74
2022/06/18 05:28:12;;;;;;;17.77;7.93;;;25.30;54.50;;;;;;5021570;28;20034;-74
2022/06/18 05:30:39;;;;;;;15.95;8.07;;;25.50;54.00;;;;;;5017078;28;20145;-72
2022/06/18 05:33:05;;;;;;;14.57;7.78;;;25.80;53.40;;;;;;5018339;28;20476;-74
2022/06/18 05:35:33;;;;;;;13.55;7.68;;;26.00;53.20;;;;;;5022622;28;20033;-73
2022/06/18 05:37:59;;;;;;;14.70;7.63;;;26.20;52.30;;;;;;5020541;28;20083;-74
2022/06/18 05:40:24;;;;;;;13.93;7.32;;;26.10;52.60;;;;;;5014700;28;20045;-74
2022/06/18 05:42:53;;;;;;;14.15;7.43;;;26.20;52.70;;;;;;5019678;28;20026;-73
2022/06/18 05:45:19;;;;;;;15.48;8.60;;;26.50;52.00;;;;;;5020461;28;20041;-75
2022/06/18 05:47:45;;;;;;;10.98;7.32;;;26.30;52.10;;;;;;5020377;28;20036;-76
2022/06/18 05:50:16;;;;;;;16.23;8.63;;;26.40;51.70;;;;;;5015406;28;20067;-74
2022/06/18 05:52:43;;;;;;;11.88;7.20;;;26.40;51.30;;;;;;5021199;28;20095;-71
2022/06/18 05:55:09;;;;;;;14.13;7.63;;;26.40;51.70;;;;;;5002403;28;20061;-72
2022/06/18 05:57:47;;;;;;;13.95;7.90;;;26.30;52.10;;;;;;5016553;28;20041;-74
2022/06/18 06:00:15;;;;;;;11.00;7.22;;;26.10;52.20;;;;;;5010320;28;20083;-74
2022/06/18 06:02:40;;;;;;;12.02;7.80;;;26.00;52.50;;;;;;5018050;28;20029;-74
2022/06/18 06:05:06;;;;;;;13.68;6.90;;;25.90;52.60;;;;;;5014696;28;20044;-74
2022/06/18 06:07:32;;;;;;;15.48;7.45;;;25.80;54.50;;;;;;5019920;28;20030;-74
2022/06/18 06:12:42;;;;;;;13.68;7.18;;;26.00;53.90;;;;;;5016992;28;20064;-74
2022/06/18 06:15:08;;;;;;;11.55;7.25;;;26.00;53.10;;;;;;5021149;28;20148;-74
2022/06/18 06:17:34;;;;;;;16.30;7.38;;;25.80;52.70;;;;;;5013079;28;20662;-77
2022/06/18 06:20:17;;;;;;;18.42;8.45;;;25.80;53.20;;;;;;5009124;28;20325;-75
2022/06/18 06:22:43;;;;;;;15.00;7.17;;;25.70;53.00;;;;;;5008844;28;20061;-74
2022/06/18 06:25:09;;;;;;;12.57;7.43;;;25.90;52.40;;;;;;5014602;28;20379;-74
2022/06/18 06:27:34;;;;;;;11.85;7.63;;;25.90;52.80;;;;;;5013988;28;20424;-75
2022/06/18 06:30:00;;;;;;;16.30;6.93;;;26.00;52.70;;;;;;5013187;28;20038;-74
2022/06/18 06:32:26;;;;;;;15.45;7.13;;;26.00;52.10;;;;;;4992401;28;20525;-74
2022/06/18 06:34:51;;;;;;;15.88;7.38;;;26.10;51.00;;;;;;4991662;28;20048;-76
2022/06/18 06:37:17;;;;;;;10.50;6.80;;;26.20;49.90;;;;;;5019122;28;20040;-74
2022/06/18 06:39:43;;;;;;;14.73;7.65;;;26.20;50.90;;;;;;5017976;28;20033;-73
2022/06/18 06:42:09;;;;;;;11.88;7.15;;;26.40;50.00;;;;;;5013482;28;20033;-73
2022/06/18 06:44:35;;;;;;;12.02;6.82;;;26.50;49.30;;;;;;5011092;28;20049;-74
2022/06/18 06:47:00;;;;;;;13.27;7.07;;;26.50;49.20;;;;;;5011192;28;20432;-74
2022/06/18 06:49:26;;;;;;;13.52;7.03;;;26.50;50.50;;;;;;4999678;28;20426;-75
2022/06/18 06:51:53;;;;;;;16.00;6.20;;;26.50;49.90;;;;;;5011144;28;20493;-74
2022/06/18 06:54:19;;;;;;;16.50;6.60;;;26.50;49.20;;;;;;5020018;28;21790;-74
2022/06/18 06:59:29;;;;;;;19.25;6.90;;;26.60;48.60;;;;;;5019510;28;20118;-72
2022/06/18 07:01:55;;;;;;;13.45;6.38;;;26.40;48.90;;;;;;5016028;28;20483;-73
2022/06/18 07:04:21;;;;;;;14.20;6.97;;;26.50;50.00;;;;;;5024653;28;20076;-73
2022/06/18 07:06:47;;;;;;;13.50;6.50;;;26.50;49.60;;;;;;5002262;28;20044;-73
2022/06/18 07:09:12;;;;;;;12.40;6.05;;;26.60;49.40;;;;;;5018863;28;20485;-74
2022/06/18 07:11:38;;;;;;;15.60;6.50;;;26.90;49.60;;;;;;5010385;28;20798;-73
2022/06/18 07:14:04;;;;;;;14.15;6.40;;;27.10;49.50;;;;;;5019154;28;20049;-73
2022/06/18 07:16:30;;;;;;;16.55;6.53;;;27.10;48.70;;;;;;5018733;28;20083;-74
2022/06/18 07:18:56;;;;;;;18.08;7.25;;;27.20;48.30;;;;;;5020150;28;20049;-74
2022/06/18 07:21:22;;;;;;;15.32;6.00;;;27.30;47.90;;;;;;5019243;28;20041;-74
2022/06/18 07:23:49;;;;;;;14.15;7.10;;;27.30;48.20;;;;;;5019385;28;20064;-73
2022/06/18 07:26:19;;;;;;;14.10;6.68;;;27.50;48.60;;;;;;5019985;28;20048;-73
2022/06/18 07:28:45;;;;;;;12.75;5.93;;;27.30;48.70;;;;;;5025679;28;20037;-75
2022/06/18 07:31:17;;;;;;;10.48;5.90;;;27.40;48.70;;;;;;5022302;28;20044;-74
2022/06/18 07:33:45;;;;;;;18.60;6.45;;;27.50;48.30;;;;;;5022032;28;20343;-75
2022/06/18 07:36:10;;;;;;;17.40;7.32;;;27.60;47.50;;;;;;5019781;28;20069;-72
2022/06/18 07:38:36;;;;;;;14.40;5.97;;;27.80;46.60;;;;;;5018971;28;20167;-72
2022/06/18 07:41:02;;;;;;;16.20;6.43;;;28.00;47.00;;;;;;5014999;28;20319;-73
2022/06/18 07:43:39;;;;;;;15.40;5.90;;;28.10;45.70;;;;;;5018458;28;20120;-73
2022/06/18 07:46:06;;;;;;;17.27;6.53;;;28.10;46.30;;;;;;5019785;28;20400;-72
2022/06/18 07:48:33;;;;;;;17.50;5.93;;;28.20;45.50;;;;;;5018671;28;20030;-73
2022/06/18 07:50:59;;;;;;;14.98;5.72;;;28.30;45.60;;;;;;5015919;28;20504;-73
2022/06/18 07:53:26;;;;;;;13.05;5.65;;;28.40;45.80;;;;;;5021664;28;20433;-72
2022/06/18 07:55:54;;;;;;;13.90;6.32;;;28.50;46.20;;;;;;5017755;28;20586;-73
2022/06/18 07:58:20;;;;;;;12.20;6.18;;;28.50;44.90;;;;;;5011150;28;20117;-74
2022/06/18 08:00:47;;;;;;;16.25;5.82;;;28.40;45.80;;;;;;5014897;28;20117;-74
2022/06/18 08:03:15;;;;;;;11.20;4.80;;;28.50;45.70;;;;;;5012253;28;20034;-74
2022/06/18 08:05:42;;;;;;;13.93;6.40;;;28.60;46.00;;;;;;5013149;28;20084;-76
2022/06/18 08:08:07;;;;;;;14.18;5.72;;;28.90;45.20;;;;;;5016543;28;20049;-74
2022/06/18 08:10:36;;;;;;;13.30;5.95;;;28.90;45.70;;;;;;5019214;28;20034;-74
2022/06/18 08:13:03;;;;;;;15.05;5.38;;;28.80;45.50;;;;;;5019517;28;20041;-73
2022/06/18 08:15:34;;;;;;;14.55;5.38;;;28.90;45.50;;;;;;5006125;28;20033;-76
2022/06/18 08:18:00;;;;;;;16.00;6.68;;;29.20;45.60;;;;;;5022101;28;20069;-74
2022/06/18 08:20:27;;;;;;;13.70;5.57;;;29.10;44.40;;;;;;5020968;28;20069;-74
2022/06/18 08:22:55;;;;;;;15.80;6.22;;;29.30;45.10;;;;;;5023709;28;20559;-74
2022/06/18 08:25:23;;;;;;;12.25;5.20;;;29.40;44.30;;;;;;5021185;28;20124;-74
2022/06/18 08:27:50;;;;;;;10.85;5.03;;;29.50;44.80;;;;;;5019331;28;20495;-72
2022/06/18 08:30:16;;;;;;;14.10;5.53;;;29.70;45.40;;;;;;5016156;28;20041;-72
2022/06/18 08:32:43;;;;;;;14.82;6.50;;;29.90;44.00;;;;;;5023067;28;20056;-73
2022/06/18 08:35:09;;;;;;;17.27;5.88;;;29.80;44.10;;;;;;5025829;28;20188;-73
2022/06/18 08:37:35;;;;;;;14.05;5.40;;;29.70;44.20;;;;;;5025204;28;20064;-73
2022/06/18 08:40:34;;;;;;;12.95;5.88;;;29.90;44.50;;;;;;5012864;28;20041;-75
2022/06/18 08:43:24;;;;;;;17.08;5.82;;;29.90;43.20;;;;;;5014171;28;20476;-74
2022/06/18 08:45:53;;;;;;;13.02;6.00;;;30.00;44.20;;;;;;5010831;28;20041;-74
2022/06/18 08:48:24;;;;;;;12.90;5.65;;;30.10;43.70;;;;;;5019094;28;20064;-73
2022/06/18 08:51:09;;;;;;;14.48;5.65;;;30.40;43.90;;;;;;5020981;28;20076;-72
2022/06/18 08:53:45;;;;;;;15.40;5.47;;;30.50;42.80;;;;;;5021128;28;20037;-73
2022/06/18 08:56:32;;;;;;;11.30;5.63;;;30.60;42.90;;;;;;5022197;28;20161;-73
2022/06/18 08:59:06;;;;;;;12.52;5.03;;;30.80;43.10;;;;;;5022878;28;20040;-74
2022/06/18 09:01:38;;;;;;;14.98;5.20;;;31.00;42.60;;;;;;5022841;28;20060;-74
2022/06/18 09:04:13;;;;;;;12.77;5.53;;;30.80;42.00;;;;;;5017375;28;20088;-72
2022/06/18 09:07:13;;;;;;;12.60;4.88;;;31.10;42.30;;;;;;5021594;28;20302;-73
2022/06/18 09:09:44;;;;;;;14.23;5.28;;;31.30;40.20;;;;;;5019683;28;20030;-73
2022/06/18 09:12:20;;;;;;;14.70;5.32;;;31.30;40.80;;;;;;5003553;28;20045;-74
2022/06/18 09:15:01;;;;;;;10.10;4.93;;;31.30;40.30;;;;;;5021569;28;20324;-76
2022/06/18 09:17:36;;;;;;;12.57;5.00;;;31.20;40.30;;;;;;5016818;28;20045;-72
2022/06/18 09:20:24;;;;;;;17.17;5.25;;;31.40;40.70;;;;;;5019517;28;20064;-74
2022/06/18 09:22:57;;;;;;;14.82;4.70;;;31.70;39.40;;;;;;5023960;28;20106;-73
2022/06/18 09:25:30;;;;;;;16.45;5.18;;;31.80;38.80;;;;;;5017334;28;20071;-75
2022/06/18 09:28:03;;;;;;;14.68;4.78;;;31.90;39.00;;;;;;5002056;28;20045;-71
2022/06/18 09:30:32;;;;;;;11.32;4.45;;;31.80;38.20;;;;;;5002540;28;20450;-73
2022/06/18 09:33:04;;;;;;;11.15;4.75;;;31.60;38.70;;;;;;5014661;28;20433;-73
2022/06/18 09:36:03;;;;;;;15.68;5.15;;;31.80;40.20;;;;;;5019693;28;20056;-74
2022/06/18 09:38:33;;;;;;;12.75;4.88;;;31.90;39.50;;;;;;5015270;28;20423;-76
2022/06/18 09:41:03;;;;;;;13.82;4.80;;;32.00;38.30;;;;;;5016911;28;20546;-75
2022/06/18 09:43:42;;;;;;;15.35;4.95;;;32.20;38.70;;;;;;5013557;28;20056;-73
2022/06/18 09:46:26;;;;;;;13.40;5.13;;;32.20;37.90;;;;;;5013178;28;20068;-73
2022/06/18 09:48:52;;;;;;;15.73;5.47;;;32.30;38.80;;;;;;4998684;28;20048;-74
2022/06/18 09:51:42;;;;;;;13.68;5.35;;;32.40;39.10;;;;;;5007077;28;20049;-74
2022/06/18 09:54:08;;;;;;;12.15;4.90;;;32.50;38.00;;;;;;5018991;28;20040;-75
2022/06/18 09:56:39;;;;;;;12.93;5.55;;;32.20;38.30;;;;;;5012675;28;20385;-73
2022/06/18 09:59:14;;;;;;;13.35;4.80;;;31.70;38.90;;;;;;4995296;28;20132;-73
2022/06/18 10:01:44;;;;;;;15.00;5.05;;;31.70;40.10;;;;;;5013783;28;20465;-73
2022/06/18 10:07:03;;;;;;;15.20;4.90;;;32.10;39.30;;;;;;5009426;28;20545;-71
2022/06/18 10:09:49;;;;;;;15.02;4.47;;;32.50;38.40;;;;;;5008674;28;20113;-74
2022/06/18 10:12:18;;;;;;;15.18;5.13;;;32.70;37.80;;;;;;4999746;28;20030;-73
2022/06/18 10:14:50;;;;;;;14.13;4.82;;;33.00;36.70;;;;;;5002085;28;20132;-70
2022/06/18 10:17:28;;;;;;;10.55;4.65;;;33.30;36.30;;;;;;5009038;28;20075;-70
2022/06/18 10:20:37;;;;;;;13.05;4.95;;;33.20;36.50;;;;;;5011601;28;20049;-73
2022/06/18 10:23:40;;;;;;;11.32;4.70;;;33.40;37.70;;;;;;5011967;28;20479;-73
2022/06/18 10:26:24;;;;;;;14.77;4.93;;;33.40;37.40;;;;;;5015437;28;20052;-74
2022/06/18 10:29:26;;;;;;;14.82;5.35;;;33.80;37.10;;;;;;5017140;28;20698;-73
2022/06/18 10:31:55;;;;;;;12.10;4.85;;;33.80;36.20;;;;;;5014756;28;20073;-75
2022/06/18 10:34:58;;;;;;;13.50;5.32;;;33.60;37.20;;;;;;5014719;28;25278;-74
2022/06/18 10:37:45;;;;;;;15.18;5.25;;;33.80;36.80;;;;;;5009971;28;20058;-73
2022/06/18 10:40:17;;;;;;;14.70;4.97;;;34.00;36.50;;;;;;5007303;28;20038;-73
2022/06/18 10:43:10;;;;;;;14.20;5.30;;;33.80;37.10;;;;;;5009182;28;20083;-75
2022/06/18 10:45:48;;;;;;;18.50;5.17;;;33.70;36.50;;;;;;5016225;28;20045;-75
2022/06/18 10:48:18;;;;;;;13.88;5.07;;;33.90;37.10;;;;;;4996994;28;20048;-73
2022/06/18 10:50:47;;;;;;;13.23;4.50;;;34.00;36.30;;;;;;5015529;28;20492;-74
2022/06/18 10:53:15;;;;;;;13.80;5.28;;;33.80;35.30;;;;;;5019486;28;20047;-76
2022/06/18 10:55:42;;;;;;;11.05;4.85;;;34.10;36.00;;;;;;4994984;28;20144;-75
2022/06/18 10:58:18;;;;;;;15.77;4.97;;;34.00;35.80;;;;;;5012749;28;20043;-74
2022/06/18 11:01:02;;;;;;;14.93;5.13;;;34.00;35.60;;;;;;5005571;28;20048;-74
2022/06/18 11:03:33;;;;;;;11.27;4.20;;;34.00;36.40;;;;;;5018205;28;20029;-74
2022/06/18 11:06:04;;;;;;;14.48;4.32;;;34.00;36.70;;;;;;5020093;28;20499;-74
2022/06/18 11:08:32;;;;;;;14.57;5.30;;;34.10;36.50;;;;;;5001108;28;20061;-74
2022/06/18 11:11:03;;;;;;;12.93;4.25;;;34.30;36.80;;;;;;5016451;28;20436;-74
2022/06/18 11:13:44;;;;;;;13.75;4.65;;;34.30;35.30;;;;;;4996983;28;20038;-73
2022/06/18 11:16:26;;;;;;;13.00;4.60;;;34.20;34.80;;;;;;5012494;28;20033;-73
2022/06/18 11:18:54;;;;;;;15.60;4.28;;;34.20;34.40;;;;;;5011773;28;20033;-75
2022/06/18 11:21:36;;;;;;;15.57;3.90;;;34.30;34.00;;;;;;5013231;28;20040;-74
2022/06/18 11:24:10;;;;;;;10.05;4.43;;;34.40;34.60;;;;;;5005750;28;20544;-75
2022/06/18 11:26:42;;;;;;;11.05;3.88;;;34.50;33.60;;;;;;5013765;28;20048;-74
2022/06/18 11:29:19;;;;;;;13.57;3.70;;;34.50;33.70;;;;;;5009755;28;20030;-73
2022/06/18 11:31:48;;;;;;;13.23;4.72;;;34.30;35.00;;;;;;5012213;28;20030;-74
2022/06/18 11:34:27;;;;;;;13.18;4.30;;;34.50;33.50;;;;;;5009131;28;20045;-74
2022/06/18 11:36:58;;;;;;;10.30;3.95;;;34.80;33.50;;;;;;5015001;28;20077;-73
2022/06/18 11:39:26;;;;;;;16.20;4.50;;;34.90;33.80;;;;;;5019987;28;20476;-73
2022/06/18 11:41:58;;;;;;;12.20;4.25;;;34.90;34.80;;;;;;5014832;28;20855;-74
2022/06/18 11:44:39;;;;;;;12.90;4.43;;;35.00;34.40;;;;;;5013167;28;20121;-75
2022/06/18 11:47:28;;;;;;;10.55;3.80;;;35.00;33.80;;;;;;5017018;28;20374;-74
2022/06/18 11:50:04;;;;;;;13.52;3.90;;;35.10;33.60;;;;;;5017908;28;20100;-74
2022/06/18 11:52:55;;;;;;;15.82;3.78;;;35.10;34.90;;;;;;5020778;28;20038;-74
2022/06/18 11:55:32;;;;;;;15.52;4.35;;;35.40;33.40;;;;;;5017228;28;20145;-74
2022/06/18 11:58:09;;;;;;;9.32;3.63;;;35.20;34.40;;;;;;5006269;28;20040;-74
2022/06/18 12:01:03;;;;;;;11.10;4.13;;;35.50;33.60;;;;;;5020491;28;20045;-75
2022/06/18 12:04:06;;;;;;;12.50;4.25;;;35.50;33.50;;;;;;5026062;28;20037;-76
2022/06/18 12:06:46;;;;;;;11.70;4.10;;;35.50;33.30;;;;;;4990278;28;20053;-75
2022/06/18 12:09:14;;;;;;;11.88;4.53;;;35.30;33.30;;;;;;5023110;28;21124;-74
2022/06/18 12:11:54;;;;;;;15.15;4.07;;;35.30;34.00;;;;;;5005917;28;20038;-75
2022/06/18 12:14:31;;;;;;;13.15;4.10;;;35.20;35.40;;;;;;5019761;28;20049;-75
2022/06/18 12:17:11;;;;;;;10.88;4.30;;;35.20;34.40;;;;;;5004146;28;20041;-74
2022/06/18 12:19:55;;;;;;;11.90;4.13;;;35.30;34.40;;;;;;5021366;28;20033;-73
2022/06/18 12:22:47;;;;;;;10.18;3.67;;;35.50;35.40;;;;;;5019038;28;20145;-74
2022/06/18 12:25:36;;;;;;;11.55;4.32;;;35.70;34.80;;;;;;4991125;28;20057;-74
2022/06/18 12:28:41;;;;;;;10.95;4.38;;;35.70;34.20;;;;;;5023645;28;20038;-75
2022/06/18 12:31:15;;;;;;;10.27;3.90;;;35.90;34.60;;;;;;5015333;28;20053;-74
2022/06/18 12:34:00;;;;;;;11.15;4.25;;;36.00;33.60;;;;;;5025075;28;20030;-73
2022/06/18 12:36:38;;;;;;;12.65;4.20;;;36.00;35.00;;;;;;5029004;28;20045;-74
2022/06/18 12:39:12;;;;;;;11.50;3.78;;;35.50;34.50;;;;;;5007084;28;20481;-74
2022/06/18 12:41:59;;;;;;;10.77;4.32;;;35.50;34.70;;;;;;5027464;28;20626;-73
2022/06/18 12:44:54;;;;;;;15.38;4.40;;;35.60;35.30;;;;;;5008264;28;20052;-74
2022/06/18 12:47:27;;;;;;;11.20;3.88;;;35.80;35.70;;;;;;5015197;28;20046;-74
2022/06/18 12:50:16;;;;;;;12.02;3.88;;;36.10;34.90;;;;;;5015275;28;20034;-73
2022/06/18 12:52:43;;;;;;;10.57;3.50;;;36.20;33.80;;;;;;5022612;28;20047;-73
2022/06/18 12:55:30;;;;;;;13.13;3.88;;;36.30;34.10;;;;;;5024329;28;20121;-73
2022/06/18 12:58:15;;;;;;;9.98;4.00;;;36.40;33.50;;;;;;5018876;28;20034;-73
2022/06/18 13:00:52;;;;;;;12.27;3.88;;;36.30;32.90;;;;;;5018317;28;20070;-74
2022/06/18 13:03:18;;;;;;;12.13;3.80;;;36.20;33.10;;;;;;5018268;28;20038;-73
2022/06/18 13:05:52;;;;;;;11.23;4.10;;;36.30;33.30;;;;;;5004053;28;20042;-73
2022/06/18 13:08:40;;;;;;;11.45;3.95;;;36.50;33.70;;;;;;5002494;28;20055;-74
2022/06/18 13:11:51;;;;;;;10.10;4.03;;;36.60;33.10;;;;;;5016491;28;20041;-73
2022/06/18 13:14:30;;;;;;;10.88;4.15;;;36.70;32.60;;;;;;5018204;28;20444;-74
2022/06/18 13:17:04;;;;;;;11.32;4.22;;;36.40;33.80;;;;;;5017555;28;20041;-73
2022/06/18 13:19:35;;;;;;;;;;;36.10;34.10;;;;;;5019423;28;20485;-74